createdAt,value
2022-12-15T00:00:07.581Z,936.51
2022-12-15T00:00:18.557Z,936.52
2022-12-15T00:00:29.705Z,936.53
2022-12-15T00:00:41.630Z,936.54
2022-12-15T00:00:53.615Z,936.54
2022-12-15T00:01:05.619Z,936.55
2022-12-15T00:01:17.573Z,936.55
2022-12-15T00:01:28.543Z,936.56
2022-12-15T00:01:39.614Z,936.56
2022-12-15T00:01:51.564Z,936.56
2022-12-15T00:02:02.550Z,936.55
2022-12-15T00:02:13.643Z,936.56
2022-12-15T00:02:25.753Z,936.55
2022-12-15T00:02:36.716Z,936.55
2022-12-15T00:02:47.717Z,936.55
2022-12-15T00:02:58.728Z,936.55
2022-12-15T00:03:09.669Z,936.55
2022-12-15T00:03:20.700Z,936.55
2022-12-15T00:03:33.027Z,936.55
2022-12-15T00:03:43.741Z,936.56
2022-12-15T00:03:55.603Z,936.56
2022-12-15T00:04:07.623Z,936.57
2022-12-15T00:04:19.592Z,936.57
2022-12-15T00:04:30.589Z,936.58
2022-12-15T00:04:41.572Z,936.58
2022-12-15T00:04:52.547Z,936.58
2022-12-15T00:05:03.618Z,936.59
2022-12-15T00:05:14.594Z,936.59
2022-12-15T00:05:25.598Z,936.60
2022-12-15T00:05:36.584Z,936.60
2022-12-15T00:05:50.178Z,936.60
2022-12-15T00:05:58.559Z,936.60
2022-12-15T00:06:09.623Z,936.60
2022-12-15T00:06:21.603Z,936.61
2022-12-15T00:06:32.629Z,936.61
2022-12-15T00:06:44.684Z,936.60
2022-12-15T00:06:55.638Z,936.60
2022-12-15T00:07:07.650Z,936.60
2022-12-15T00:07:19.613Z,936.60
2022-12-15T00:07:30.594Z,936.60
2022-12-15T00:07:41.548Z,936.60
2022-12-15T00:07:52.544Z,936.60
2022-12-15T00:08:03.636Z,936.60
2022-12-15T00:08:15.562Z,936.60
2022-12-15T00:08:26.561Z,936.60
2022-12-15T00:08:37.543Z,936.60
2022-12-15T00:08:48.544Z,936.60
2022-12-15T00:08:59.616Z,936.60
2022-12-15T00:09:14.374Z,936.59
2022-12-15T00:09:27.701Z,936.59
2022-12-15T00:09:34.581Z,936.59
2022-12-15T00:09:45.574Z,936.59
2022-12-15T00:09:56.641Z,936.59
2022-12-15T00:10:08.604Z,936.60
2022-12-15T00:10:19.595Z,936.60
2022-12-15T00:10:30.556Z,936.60
2022-12-15T00:10:41.593Z,936.61
2022-12-15T00:10:52.580Z,936.62
2022-12-15T00:11:03.571Z,936.63
2022-12-15T00:11:14.548Z,936.63
2022-12-15T00:11:25.648Z,936.62
2022-12-15T00:11:37.580Z,936.62
2022-12-15T00:11:48.553Z,936.63
2022-12-15T00:11:59.541Z,936.63
2022-12-15T00:12:10.615Z,936.64
2022-12-15T00:12:22.560Z,936.63
2022-12-15T00:12:33.625Z,936.63
2022-12-15T00:12:45.577Z,936.62
2022-12-15T00:12:56.637Z,936.62
2022-12-15T00:13:08.584Z,936.62
2022-12-15T00:13:19.584Z,936.63
2022-12-15T00:13:31.115Z,936.63
2022-12-15T00:13:41.589Z,936.63
2022-12-15T00:13:52.553Z,936.63
2022-12-15T00:14:03.636Z,936.62
2022-12-15T00:14:15.569Z,936.63
2022-12-15T00:14:26.537Z,936.63
2022-12-15T00:14:37.620Z,936.64
2022-12-15T00:14:49.564Z,936.64
2022-12-15T00:15:00.549Z,936.65
2022-12-15T00:15:11.630Z,936.66
2022-12-15T00:15:23.573Z,936.66
2022-12-15T00:15:34.653Z,936.66
2022-12-15T00:15:45.622Z,936.66
2022-12-15T00:15:57.586Z,936.66
2022-12-15T00:16:08.604Z,936.66
2022-12-15T00:16:19.660Z,936.66
2022-12-15T00:16:30.583Z,936.65
2022-12-15T00:16:41.577Z,936.65
2022-12-15T00:16:52.546Z,936.65
2022-12-15T00:17:03.612Z,936.65
2022-12-15T00:17:15.565Z,936.64
2022-12-15T00:17:26.537Z,936.64
2022-12-15T00:17:37.584Z,936.64
2022-12-15T00:17:48.585Z,936.64
2022-12-15T00:17:59.568Z,936.64
2022-12-15T00:18:10.545Z,936.64
2022-12-15T00:18:21.535Z,936.64
2022-12-15T00:18:32.626Z,936.63
2022-12-15T00:18:44.560Z,936.63
2022-12-15T00:18:55.545Z,936.63
2022-12-15T00:19:06.604Z,936.63
2022-12-15T00:19:17.577Z,936.63
2022-12-15T00:19:28.547Z,936.62
2022-12-15T00:19:39.612Z,936.61
2022-12-15T00:19:51.577Z,936.61
2022-12-15T00:20:02.591Z,936.61
2022-12-15T00:20:13.568Z,936.61
2022-12-15T00:20:24.583Z,936.62
2022-12-15T00:20:35.632Z,936.63
2022-12-15T00:20:46.589Z,936.63
2022-12-15T00:20:58.627Z,936.64
2022-12-15T00:21:09.592Z,936.64
2022-12-15T00:21:20.569Z,936.64
2022-12-15T00:21:31.547Z,936.64
2022-12-15T00:21:42.635Z,936.64
2022-12-15T00:21:54.610Z,936.64
2022-12-15T00:22:05.575Z,936.64
2022-12-15T00:22:16.645Z,936.64
2022-12-15T00:22:28.573Z,936.64
2022-12-15T00:22:39.585Z,936.64
2022-12-15T00:22:50.569Z,936.64
2022-12-15T00:23:01.643Z,936.65
2022-12-15T00:23:13.590Z,936.64
2022-12-15T00:23:24.554Z,936.64
2022-12-15T00:23:35.628Z,936.63
2022-12-15T00:23:47.571Z,936.63
2022-12-15T00:23:58.550Z,936.62
2022-12-15T00:24:09.622Z,936.62
2022-12-15T00:24:20.589Z,936.61
2022-12-15T00:24:32.606Z,936.61
2022-12-15T00:24:43.575Z,936.61
2022-12-15T00:24:55.582Z,936.61
2022-12-15T00:25:06.561Z,936.62
2022-12-15T00:25:17.630Z,936.62
2022-12-15T00:25:28.600Z,936.62
2022-12-15T00:25:39.582Z,936.62
2022-12-15T00:25:51.598Z,936.62
2022-12-15T00:26:02.599Z,936.62
2022-12-15T00:26:14.619Z,936.61
2022-12-15T00:26:25.587Z,936.61
2022-12-15T00:26:36.557Z,936.61
2022-12-15T00:26:47.626Z,936.62
2022-12-15T00:26:58.592Z,936.61
2022-12-15T00:27:09.559Z,936.60
2022-12-15T00:27:20.621Z,936.60
2022-12-15T00:27:32.635Z,936.60
2022-12-15T00:27:44.604Z,936.61
2022-12-15T00:27:55.572Z,936.60
2022-12-15T00:28:06.556Z,936.60
2022-12-15T00:28:17.614Z,936.60
2022-12-15T00:28:29.624Z,936.60
2022-12-15T00:28:41.646Z,936.60
2022-12-15T00:28:53.616Z,936.61
2022-12-15T00:29:04.580Z,936.61
2022-12-15T00:29:16.604Z,936.62
2022-12-15T00:29:27.571Z,936.62
2022-12-15T00:29:39.586Z,936.62
2022-12-15T00:29:50.542Z,936.61
2022-12-15T00:30:01.621Z,936.61
2022-12-15T00:30:13.635Z,936.61
2022-12-15T00:30:25.584Z,936.63
2022-12-15T00:30:36.565Z,936.64
2022-12-15T00:30:49.884Z,936.64
2022-12-15T00:31:02.474Z,936.65
2022-12-15T00:31:11.621Z,936.65
2022-12-15T00:31:23.639Z,936.65
2022-12-15T00:31:35.679Z,936.65
2022-12-15T00:31:47.668Z,936.66
2022-12-15T00:31:58.669Z,936.66
2022-12-15T00:32:09.589Z,936.67
2022-12-15T00:32:20.567Z,936.67
2022-12-15T00:32:31.572Z,936.67
2022-12-15T00:32:42.561Z,936.67
2022-12-15T00:32:53.640Z,936.67
2022-12-15T00:33:05.589Z,936.68
2022-12-15T00:33:16.548Z,936.69
2022-12-15T00:33:27.857Z,936.70
2022-12-15T00:33:39.599Z,936.70
2022-12-15T00:33:50.578Z,936.70
2022-12-15T00:34:01.641Z,936.70
2022-12-15T00:34:13.611Z,936.70
2022-12-15T00:34:25.630Z,936.71
2022-12-15T00:34:36.605Z,936.72
2022-12-15T00:34:48.626Z,936.72
2022-12-15T00:34:59.594Z,936.73
2022-12-15T00:35:10.582Z,936.74
2022-12-15T00:35:21.587Z,936.75
2022-12-15T00:35:32.638Z,936.75
2022-12-15T00:35:44.616Z,936.76
2022-12-15T00:35:56.576Z,936.76
2022-12-15T00:36:07.647Z,936.76
2022-12-15T00:36:19.585Z,936.75
2022-12-15T00:36:30.557Z,936.75
2022-12-15T00:36:41.635Z,936.74
2022-12-15T00:36:53.609Z,936.74
2022-12-15T00:37:04.579Z,936.74
2022-12-15T00:37:15.650Z,936.74
2022-12-15T00:37:27.590Z,936.74
2022-12-15T00:37:38.569Z,936.75
2022-12-15T00:37:49.639Z,936.75
2022-12-15T00:38:01.590Z,936.75
2022-12-15T00:38:13.608Z,936.75
2022-12-15T00:38:24.573Z,936.75
2022-12-15T00:38:35.560Z,936.75
2022-12-15T00:38:46.635Z,936.75
2022-12-15T00:39:03.500Z,936.75
2022-12-15T00:39:10.587Z,936.76
2022-12-15T00:39:20.623Z,936.76
2022-12-15T00:39:32.590Z,936.76
2022-12-15T00:39:43.582Z,936.76
2022-12-15T00:39:54.646Z,936.76
2022-12-15T00:40:06.581Z,936.76
2022-12-15T00:40:17.636Z,936.76
2022-12-15T00:40:29.612Z,936.76
2022-12-15T00:40:40.588Z,936.76
2022-12-15T00:40:51.650Z,936.76
2022-12-15T00:41:03.584Z,936.77
2022-12-15T00:41:15.605Z,936.76
2022-12-15T00:41:26.598Z,936.77
2022-12-15T00:41:37.563Z,936.77
2022-12-15T00:41:48.550Z,936.77
2022-12-15T00:41:59.621Z,936.77
2022-12-15T00:42:11.633Z,936.77
2022-12-15T00:42:23.584Z,936.77
2022-12-15T00:42:35.605Z,936.77
2022-12-15T00:42:49.445Z,936.78
2022-12-15T00:42:57.637Z,936.79
2022-12-15T00:43:09.573Z,936.79
2022-12-15T00:43:20.633Z,936.80
2022-12-15T00:43:32.093Z,936.80
2022-12-15T00:43:42.566Z,936.81
2022-12-15T00:43:53.629Z,936.81
2022-12-15T00:44:05.547Z,936.80
2022-12-15T00:44:20.635Z,936.80
2022-12-15T00:44:27.574Z,936.80
2022-12-15T00:44:38.637Z,936.82
2022-12-15T00:44:50.553Z,936.82
2022-12-15T00:45:01.549Z,936.84
2022-12-15T00:45:12.623Z,936.84
2022-12-15T00:45:23.586Z,936.85
2022-12-15T00:45:35.604Z,936.85
2022-12-15T00:45:46.563Z,936.86
2022-12-15T00:45:57.625Z,936.86
2022-12-15T00:46:09.668Z,936.86
2022-12-15T00:46:21.679Z,936.87
2022-12-15T00:46:33.697Z,936.87
2022-12-15T00:46:45.609Z,936.87
2022-12-15T00:46:56.723Z,936.87
2022-12-15T00:47:08.634Z,936.88
2022-12-15T00:47:19.599Z,936.88
2022-12-15T00:47:30.567Z,936.89
2022-12-15T00:47:42.581Z,936.89
2022-12-15T00:47:53.553Z,936.90
2022-12-15T00:48:04.645Z,936.90
2022-12-15T00:48:16.570Z,936.91
2022-12-15T00:48:28.590Z,936.91
2022-12-15T00:48:40.611Z,936.92
2022-12-15T00:48:51.581Z,936.92
2022-12-15T00:49:02.645Z,936.91
2022-12-15T00:49:14.577Z,936.91
2022-12-15T00:49:25.649Z,936.90
2022-12-15T00:49:37.598Z,936.90
2022-12-15T00:49:48.560Z,936.90
2022-12-15T00:49:59.626Z,936.91
2022-12-15T00:50:10.595Z,936.92
2022-12-15T00:50:21.551Z,936.92
2022-12-15T00:50:32.626Z,936.93
2022-12-15T00:50:43.580Z,936.93
2022-12-15T00:50:55.597Z,936.93
2022-12-15T00:51:07.615Z,936.93
2022-12-15T00:51:19.628Z,936.92
2022-12-15T00:51:30.591Z,936.93
2022-12-15T00:51:41.552Z,936.93
2022-12-15T00:51:52.650Z,936.93
2022-12-15T00:52:04.578Z,936.93
2022-12-15T00:52:16.597Z,936.93
2022-12-15T00:52:27.600Z,936.94
2022-12-15T00:52:38.557Z,936.94
2022-12-15T00:52:49.644Z,936.93
2022-12-15T00:53:01.599Z,936.93
2022-12-15T00:53:13.600Z,936.93
2022-12-15T00:53:24.591Z,936.93
2022-12-15T00:53:35.576Z,936.93
2022-12-15T00:53:46.638Z,936.92
2022-12-15T00:53:57.609Z,936.92
2022-12-15T00:54:13.221Z,936.92
2022-12-15T00:54:20.584Z,936.92
2022-12-15T00:54:30.604Z,936.92
2022-12-15T00:54:42.621Z,936.93
2022-12-15T00:54:53.601Z,936.94
2022-12-15T00:55:05.618Z,936.94
2022-12-15T00:55:16.597Z,936.94
2022-12-15T00:55:27.565Z,936.94
2022-12-15T00:55:38.650Z,936.94
2022-12-15T00:55:50.624Z,936.95
2022-12-15T00:56:01.586Z,936.96
2022-12-15T00:56:12.646Z,936.96
2022-12-15T00:56:24.576Z,936.97
2022-12-15T00:56:35.637Z,936.98
2022-12-15T00:56:47.562Z,936.98
2022-12-15T00:56:58.638Z,936.98
2022-12-15T00:57:10.604Z,936.98
2022-12-15T00:57:21.580Z,936.98
2022-12-15T00:57:32.566Z,936.97
2022-12-15T00:57:43.621Z,936.97
2022-12-15T00:57:54.611Z,936.96
2022-12-15T00:58:05.572Z,936.95
2022-12-15T00:58:16.645Z,936.95
2022-12-15T00:58:28.614Z,936.96
2022-12-15T00:58:39.590Z,936.96
2022-12-15T00:58:50.555Z,936.95
2022-12-15T00:59:01.618Z,936.95
2022-12-15T00:59:13.630Z,936.94
2022-12-15T00:59:24.594Z,936.94
2022-12-15T00:59:35.577Z,936.94
2022-12-15T00:59:46.634Z,936.95
2022-12-15T00:59:57.588Z,936.95
2022-12-15T01:00:08.567Z,936.96
2022-12-15T01:00:20.584Z,936.97
2022-12-15T01:00:31.553Z,936.97
2022-12-15T01:00:42.645Z,936.98
2022-12-15T01:00:54.591Z,936.98
2022-12-15T01:01:05.548Z,936.98
2022-12-15T01:01:16.786Z,936.98
2022-12-15T01:01:27.784Z,936.98
2022-12-15T01:01:38.748Z,936.98
2022-12-15T01:01:49.729Z,936.98
2022-12-15T01:02:00.800Z,936.98
2022-12-15T01:02:11.727Z,936.98
2022-12-15T01:02:23.736Z,936.98
2022-12-15T01:02:35.848Z,936.99
2022-12-15T01:02:46.879Z,937.00
2022-12-15T01:02:58.875Z,937.00
2022-12-15T01:03:10.773Z,937.01
2022-12-15T01:03:21.701Z,937.00
2022-12-15T01:03:33.227Z,937.00
2022-12-15T01:03:43.770Z,937.00
2022-12-15T01:03:55.679Z,936.99
2022-12-15T01:04:06.709Z,936.99
2022-12-15T01:04:17.628Z,936.99
2022-12-15T01:04:29.628Z,936.99
2022-12-15T01:04:40.596Z,936.99
2022-12-15T01:04:51.549Z,936.99
2022-12-15T01:05:02.641Z,936.99
2022-12-15T01:05:14.584Z,936.99
2022-12-15T01:05:25.562Z,937.00
2022-12-15T01:05:37.575Z,937.01
2022-12-15T01:05:48.652Z,937.02
2022-12-15T01:06:00.592Z,937.02
2022-12-15T01:06:11.546Z,937.02
2022-12-15T01:06:22.612Z,937.03
2022-12-15T01:06:34.551Z,937.04
2022-12-15T01:06:45.621Z,937.04
2022-12-15T01:06:56.581Z,937.04
2022-12-15T01:07:08.589Z,937.04
2022-12-15T01:07:19.558Z,937.04
2022-12-15T01:07:30.538Z,937.04
2022-12-15T01:07:41.611Z,937.04
2022-12-15T01:07:53.622Z,937.05
2022-12-15T01:08:05.525Z,937.05
2022-12-15T01:08:16.558Z,937.05
2022-12-15T01:08:28.588Z,937.06
2022-12-15T01:08:40.600Z,937.06
2022-12-15T01:08:52.620Z,937.07
2022-12-15T01:09:04.572Z,937.07
2022-12-15T01:09:16.589Z,937.08
2022-12-15T01:09:28.597Z,937.09
2022-12-15T01:09:39.561Z,937.10
2022-12-15T01:09:50.585Z,937.11
2022-12-15T01:10:01.543Z,937.10
2022-12-15T01:10:13.555Z,937.11
2022-12-15T01:10:24.532Z,937.11
2022-12-15T01:10:35.610Z,937.11
2022-12-15T01:10:47.613Z,937.11
2022-12-15T01:10:59.582Z,937.11
2022-12-15T01:11:11.596Z,937.11
2022-12-15T01:11:23.609Z,937.11
2022-12-15T01:11:34.575Z,937.11
2022-12-15T01:11:46.573Z,937.11
2022-12-15T01:11:58.572Z,937.12
2022-12-15T01:12:09.545Z,937.12
2022-12-15T01:12:21.556Z,937.12
2022-12-15T01:12:33.568Z,937.13
2022-12-15T01:12:44.529Z,937.13
2022-12-15T01:12:55.593Z,937.13
2022-12-15T01:13:06.576Z,937.14
2022-12-15T01:13:17.539Z,937.15
2022-12-15T01:13:29.042Z,937.15
2022-12-15T01:13:40.593Z,937.15
2022-12-15T01:13:51.580Z,937.16
2022-12-15T01:14:02.543Z,937.16
2022-12-15T01:14:13.611Z,937.16
2022-12-15T01:14:25.626Z,937.16
2022-12-15T01:14:37.576Z,937.16
2022-12-15T01:14:48.540Z,937.16
2022-12-15T01:14:59.610Z,937.16
2022-12-15T01:15:11.633Z,937.16
2022-12-15T01:15:22.596Z,937.17
2022-12-15T01:15:33.560Z,937.17
2022-12-15T01:15:44.691Z,937.17
2022-12-15T01:15:55.668Z,937.18
2022-12-15T01:16:07.706Z,937.18
2022-12-15T01:16:18.675Z,937.19
2022-12-15T01:16:29.633Z,937.19
2022-12-15T01:16:40.676Z,937.19
2022-12-15T01:16:52.560Z,937.19
2022-12-15T01:17:03.544Z,937.19
2022-12-15T01:17:14.603Z,937.19
2022-12-15T01:17:25.585Z,937.19
2022-12-15T01:17:36.556Z,937.18
2022-12-15T01:17:47.614Z,937.19
2022-12-15T01:17:59.575Z,937.18
2022-12-15T01:18:10.630Z,937.19
2022-12-15T01:18:22.561Z,937.19
2022-12-15T01:18:33.623Z,937.19
2022-12-15T01:18:49.636Z,937.20
2022-12-15T01:18:56.578Z,937.20
2022-12-15T01:19:07.595Z,937.21
2022-12-15T01:19:18.585Z,937.22
2022-12-15T01:19:29.550Z,937.22
2022-12-15T01:19:40.561Z,937.22
2022-12-15T01:19:52.608Z,937.23
2022-12-15T01:20:03.566Z,937.23
2022-12-15T01:20:14.638Z,937.23
2022-12-15T01:20:26.574Z,937.24
2022-12-15T01:20:37.548Z,937.25
2022-12-15T01:20:48.556Z,937.24
2022-12-15T01:20:59.542Z,937.25
2022-12-15T01:21:10.620Z,937.25
2022-12-15T01:21:25.102Z,937.25
2022-12-15T01:21:33.580Z,937.25
2022-12-15T01:21:44.571Z,937.25
2022-12-15T01:21:55.576Z,937.26
2022-12-15T01:22:06.596Z,937.27
2022-12-15T01:22:17.565Z,937.28
2022-12-15T01:22:28.541Z,937.28
2022-12-15T01:22:39.606Z,937.28
2022-12-15T01:22:50.586Z,937.29
2022-12-15T01:23:01.575Z,937.28
2022-12-15T01:23:12.618Z,937.28
2022-12-15T01:23:24.559Z,937.29
2022-12-15T01:23:35.663Z,937.29
2022-12-15T01:23:47.608Z,937.30
2022-12-15T01:23:58.576Z,937.31
2022-12-15T01:24:09.542Z,937.31
2022-12-15T01:24:20.608Z,937.32
2022-12-15T01:24:31.566Z,937.32
2022-12-15T01:24:42.621Z,937.32
2022-12-15T01:24:54.587Z,937.32
2022-12-15T01:25:05.550Z,937.33
2022-12-15T01:25:16.631Z,937.33
2022-12-15T01:25:27.604Z,937.33
2022-12-15T01:25:38.567Z,937.34
2022-12-15T01:25:49.626Z,937.33
2022-12-15T01:26:01.569Z,937.33
2022-12-15T01:26:12.568Z,937.33
2022-12-15T01:26:23.640Z,937.32
2022-12-15T01:26:35.582Z,937.32
2022-12-15T01:26:46.548Z,937.32
2022-12-15T01:26:57.535Z,937.31
2022-12-15T01:27:08.579Z,937.31
2022-12-15T01:27:20.598Z,937.31
2022-12-15T01:27:32.614Z,937.31
2022-12-15T01:27:43.558Z,937.31
2022-12-15T01:27:54.556Z,937.31
2022-12-15T01:28:05.632Z,937.30
2022-12-15T01:28:17.536Z,937.30
2022-12-15T01:28:28.543Z,937.30
2022-12-15T01:28:39.615Z,937.30
2022-12-15T01:28:50.594Z,937.30
2022-12-15T01:29:01.557Z,937.30
2022-12-15T01:29:12.630Z,937.30
2022-12-15T01:29:24.564Z,937.30
2022-12-15T01:29:35.638Z,937.31
2022-12-15T01:29:47.608Z,937.30
2022-12-15T01:29:58.579Z,937.30
2022-12-15T01:30:10.601Z,937.30
2022-12-15T01:30:21.561Z,937.30
2022-12-15T01:30:32.632Z,937.31
2022-12-15T01:30:44.565Z,937.31
2022-12-15T01:30:55.699Z,937.31
2022-12-15T01:31:07.714Z,937.31
2022-12-15T01:31:18.670Z,937.31
2022-12-15T01:31:29.719Z,937.31
2022-12-15T01:31:40.652Z,937.31
2022-12-15T01:31:53.617Z,937.30
2022-12-15T01:32:03.594Z,937.30
2022-12-15T01:32:14.553Z,937.29
2022-12-15T01:32:25.621Z,937.29
2022-12-15T01:32:39.379Z,937.28
2022-12-15T01:32:47.601Z,937.28
2022-12-15T01:32:59.620Z,937.28
2022-12-15T01:33:10.594Z,937.29
2022-12-15T01:33:21.564Z,937.29
2022-12-15T01:33:32.934Z,937.29
2022-12-15T01:33:44.603Z,937.30
2022-12-15T01:33:55.580Z,937.30
2022-12-15T01:34:06.547Z,937.30
2022-12-15T01:34:17.619Z,937.30
2022-12-15T01:34:29.576Z,937.30
2022-12-15T01:34:41.577Z,937.30
2022-12-15T01:34:53.614Z,937.30
2022-12-15T01:35:04.581Z,937.30
2022-12-15T01:35:16.559Z,937.30
2022-12-15T01:35:27.622Z,937.30
2022-12-15T01:35:39.587Z,937.30
2022-12-15T01:35:51.590Z,937.31
2022-12-15T01:36:02.595Z,937.31
2022-12-15T01:36:13.566Z,937.30
2022-12-15T01:36:24.629Z,937.30
2022-12-15T01:36:35.597Z,937.30
2022-12-15T01:36:46.589Z,937.30
2022-12-15T01:36:57.579Z,937.31
2022-12-15T01:37:08.556Z,937.31
2022-12-15T01:37:19.630Z,937.32
2022-12-15T01:37:31.544Z,937.32
2022-12-15T01:37:42.634Z,937.33
2022-12-15T01:37:54.585Z,937.34
2022-12-15T01:38:05.550Z,937.34
2022-12-15T01:38:16.635Z,937.34
2022-12-15T01:38:28.561Z,937.35
2022-12-15T01:38:39.625Z,937.35
2022-12-15T01:38:54.274Z,937.34
2022-12-15T01:39:03.610Z,937.35
2022-12-15T01:39:15.625Z,937.35
2022-12-15T01:39:26.584Z,937.35
2022-12-15T01:39:37.554Z,937.36
2022-12-15T01:39:48.625Z,937.37
2022-12-15T01:39:59.596Z,937.37
2022-12-15T01:40:10.570Z,937.37
2022-12-15T01:40:21.557Z,937.37
2022-12-15T01:40:32.618Z,937.37
2022-12-15T01:40:43.592Z,937.36
2022-12-15T01:40:54.553Z,937.36
2022-12-15T01:41:06.566Z,937.37
2022-12-15T01:41:17.636Z,937.37
2022-12-15T01:41:29.604Z,937.38
2022-12-15T01:41:40.587Z,937.38
2022-12-15T01:41:51.556Z,937.39
2022-12-15T01:42:02.628Z,937.39
2022-12-15T01:42:13.597Z,937.40
2022-12-15T01:42:24.555Z,937.39
2022-12-15T01:42:35.620Z,937.39
2022-12-15T01:42:47.569Z,937.39
2022-12-15T01:42:58.631Z,937.39
2022-12-15T01:43:10.566Z,937.39
2022-12-15T01:43:21.631Z,937.40
2022-12-15T01:43:33.957Z,937.40
2022-12-15T01:43:44.553Z,937.40
2022-12-15T01:43:55.625Z,937.40
2022-12-15T01:44:06.586Z,937.40
2022-12-15T01:44:18.603Z,937.40
2022-12-15T01:44:30.622Z,937.39
2022-12-15T01:44:41.595Z,937.39
2022-12-15T01:44:52.568Z,937.39
2022-12-15T01:45:03.545Z,937.40
2022-12-15T01:45:14.613Z,937.40
2022-12-15T01:45:26.549Z,937.40
2022-12-15T01:45:37.617Z,937.41
2022-12-15T01:45:48.587Z,937.40
2022-12-15T01:45:59.592Z,937.40
2022-12-15T01:46:10.565Z,937.40
2022-12-15T01:46:21.607Z,937.40
2022-12-15T01:46:32.658Z,937.40
2022-12-15T01:46:44.650Z,937.40
2022-12-15T01:46:56.685Z,937.40
2022-12-15T01:47:08.612Z,937.39
2022-12-15T01:47:19.600Z,937.38
2022-12-15T01:47:30.558Z,937.38
2022-12-15T01:47:41.636Z,937.38
2022-12-15T01:47:53.581Z,937.38
2022-12-15T01:48:04.548Z,937.37
2022-12-15T01:48:15.604Z,937.37
2022-12-15T01:48:26.576Z,937.37
2022-12-15T01:48:37.544Z,937.36
2022-12-15T01:48:48.607Z,937.37
2022-12-15T01:48:59.584Z,937.38
2022-12-15T01:49:10.564Z,937.39
2022-12-15T01:49:21.637Z,937.39
2022-12-15T01:49:33.561Z,937.40
2022-12-15T01:49:44.551Z,937.40
2022-12-15T01:49:55.654Z,937.40
2022-12-15T01:50:07.588Z,937.40
2022-12-15T01:50:18.591Z,937.40
2022-12-15T01:50:29.536Z,937.39
2022-12-15T01:50:40.621Z,937.39
2022-12-15T01:50:51.589Z,937.39
2022-12-15T01:51:02.569Z,937.38
2022-12-15T01:51:13.632Z,937.38
2022-12-15T01:51:25.551Z,937.38
2022-12-15T01:51:36.613Z,937.37
2022-12-15T01:51:48.550Z,937.37
2022-12-15T01:51:59.615Z,937.37
2022-12-15T01:52:10.587Z,937.37
2022-12-15T01:52:21.547Z,937.37
2022-12-15T01:52:32.620Z,937.37
2022-12-15T01:52:44.635Z,937.37
2022-12-15T01:52:55.594Z,937.37
2022-12-15T01:53:06.578Z,937.37
2022-12-15T01:53:17.556Z,937.37
2022-12-15T01:53:28.965Z,937.37
2022-12-15T01:53:39.641Z,937.37
2022-12-15T01:53:51.625Z,937.36
2022-12-15T01:54:03.622Z,937.36
2022-12-15T01:54:14.588Z,937.36
2022-12-15T01:54:25.547Z,937.36
2022-12-15T01:54:36.620Z,937.37
2022-12-15T01:54:48.737Z,937.37
2022-12-15T01:54:59.596Z,937.37
2022-12-15T01:55:10.583Z,937.38
2022-12-15T01:55:21.568Z,937.37
2022-12-15T01:55:32.639Z,937.38
2022-12-15T01:55:44.572Z,937.38
2022-12-15T01:55:56.580Z,937.39
2022-12-15T01:56:07.575Z,937.39
2022-12-15T01:56:18.568Z,937.39
2022-12-15T01:56:35.353Z,937.39
2022-12-15T01:56:42.597Z,937.39
2022-12-15T01:56:52.609Z,937.39
2022-12-15T01:57:03.570Z,937.39
2022-12-15T01:57:14.637Z,937.39
2022-12-15T01:57:26.549Z,937.39
2022-12-15T01:57:37.613Z,937.39
2022-12-15T01:57:48.582Z,937.39
2022-12-15T01:57:59.573Z,937.40
2022-12-15T01:58:10.639Z,937.40
2022-12-15T01:58:21.605Z,937.40
2022-12-15T01:58:32.571Z,937.40
2022-12-15T01:58:44.585Z,937.39
2022-12-15T01:58:55.567Z,937.39
2022-12-15T01:59:06.655Z,937.38
2022-12-15T01:59:18.596Z,937.38
2022-12-15T01:59:30.567Z,937.38
2022-12-15T01:59:41.626Z,937.38
2022-12-15T01:59:53.561Z,937.37
2022-12-15T02:00:04.637Z,937.38
2022-12-15T02:00:16.545Z,937.38
2022-12-15T02:00:27.611Z,937.38
2022-12-15T02:00:39.587Z,937.38
2022-12-15T02:00:50.633Z,937.39
2022-12-15T02:01:01.659Z,937.39
2022-12-15T02:01:12.607Z,937.39
2022-12-15T02:01:23.790Z,937.40
2022-12-15T02:01:34.794Z,937.40
2022-12-15T02:01:49.906Z,937.40
2022-12-15T02:01:58.788Z,937.40
2022-12-15T02:02:10.713Z,937.40
2022-12-15T02:02:21.673Z,937.40
2022-12-15T02:02:37.055Z,937.40
2022-12-15T02:02:44.659Z,937.40
2022-12-15T02:02:55.661Z,937.40
2022-12-15T02:03:06.742Z,937.41
2022-12-15T02:03:18.662Z,937.41
2022-12-15T02:03:29.878Z,937.41
2022-12-15T02:03:40.548Z,937.41
2022-12-15T02:03:51.613Z,937.41
2022-12-15T02:04:02.574Z,937.41
2022-12-15T02:04:13.545Z,937.41
2022-12-15T02:04:24.585Z,937.42
2022-12-15T02:04:35.637Z,937.42
2022-12-15T02:04:46.605Z,937.42
2022-12-15T02:04:58.579Z,937.42
2022-12-15T02:05:09.643Z,937.42
2022-12-15T02:05:20.606Z,937.42
2022-12-15T02:05:31.566Z,937.42
2022-12-15T02:05:42.556Z,937.43
2022-12-15T02:05:53.633Z,937.43
2022-12-15T02:06:04.601Z,937.44
2022-12-15T02:06:15.569Z,937.44
2022-12-15T02:06:26.575Z,937.44
2022-12-15T02:06:37.598Z,937.44
2022-12-15T02:06:48.590Z,937.44
2022-12-15T02:07:00.583Z,937.44
2022-12-15T02:07:11.593Z,937.44
2022-12-15T02:07:22.569Z,937.44
2022-12-15T02:07:34.586Z,937.45
2022-12-15T02:07:45.556Z,937.45
2022-12-15T02:07:56.616Z,937.45
2022-12-15T02:08:08.581Z,937.46
2022-12-15T02:08:19.642Z,937.46
2022-12-15T02:08:31.575Z,937.47
2022-12-15T02:08:42.543Z,937.47
2022-12-15T02:08:53.620Z,937.46
2022-12-15T02:09:04.589Z,937.46
2022-12-15T02:09:15.565Z,937.46
2022-12-15T02:09:26.572Z,937.46
2022-12-15T02:09:38.590Z,937.47
2022-12-15T02:09:50.607Z,937.47
2022-12-15T02:10:01.597Z,937.47
2022-12-15T02:10:12.577Z,937.47
2022-12-15T02:10:23.613Z,937.47
2022-12-15T02:10:34.573Z,937.48
2022-12-15T02:10:45.553Z,937.48
2022-12-15T02:10:56.629Z,937.48
2022-12-15T02:11:07.594Z,937.49
2022-12-15T02:11:18.570Z,937.49
2022-12-15T02:11:29.550Z,937.50
2022-12-15T02:11:40.614Z,937.50
2022-12-15T02:11:51.585Z,937.50
2022-12-15T02:12:02.560Z,937.50
2022-12-15T02:12:13.632Z,937.50
2022-12-15T02:12:25.560Z,937.50
2022-12-15T02:12:36.627Z,937.50
2022-12-15T02:12:47.598Z,937.50
2022-12-15T02:12:58.565Z,937.50
2022-12-15T02:13:09.533Z,937.50
2022-12-15T02:13:21.576Z,937.50
2022-12-15T02:13:33.015Z,937.49
2022-12-15T02:13:43.551Z,937.49
2022-12-15T02:13:54.627Z,937.49
2022-12-15T02:14:05.595Z,937.49
2022-12-15T02:14:16.603Z,937.48
2022-12-15T02:14:28.626Z,937.48
2022-12-15T02:14:40.563Z,937.48
2022-12-15T02:14:51.636Z,937.47
2022-12-15T02:15:03.549Z,937.47
2022-12-15T02:15:14.548Z,937.47
2022-12-15T02:15:25.612Z,937.47
2022-12-15T02:15:36.588Z,937.47
2022-12-15T02:15:47.563Z,937.47
2022-12-15T02:15:58.562Z,937.47
2022-12-15T02:16:09.661Z,937.47
2022-12-15T02:16:21.624Z,937.48
2022-12-15T02:16:33.690Z,937.48
2022-12-15T02:16:45.668Z,937.49
2022-12-15T02:16:56.587Z,937.50
2022-12-15T02:17:07.596Z,937.50
2022-12-15T02:17:19.562Z,937.50
2022-12-15T02:17:30.622Z,937.50
2022-12-15T02:17:41.585Z,937.51
2022-12-15T02:17:53.597Z,937.51
2022-12-15T02:18:04.557Z,937.51
2022-12-15T02:18:15.550Z,937.51
2022-12-15T02:18:26.640Z,937.50
2022-12-15T02:18:38.547Z,937.50
2022-12-15T02:18:49.549Z,937.50
2022-12-15T02:19:00.555Z,937.50
2022-12-15T02:19:11.623Z,937.49
2022-12-15T02:19:23.636Z,937.48
2022-12-15T02:19:35.552Z,937.48
2022-12-15T02:19:46.616Z,937.48
2022-12-15T02:19:57.574Z,937.47
2022-12-15T02:20:08.560Z,937.47
2022-12-15T02:20:19.621Z,937.47
2022-12-15T02:20:30.587Z,937.48
2022-12-15T02:20:41.584Z,937.48
2022-12-15T02:20:52.590Z,937.49
2022-12-15T02:21:04.605Z,937.49